Columbia, South Dakota
Current Conditions -  °F | °C
As of 6:53 AM on Thursday 27 Nov 2014 (Local Time) from KABR Reporting Station
Clear Clear  
Wind Chill: -13°   Ceiling: Unl
Heat Index: -13°   Visibility: 10mi
Dew Point: -18°   Wind: 0mph
Humidity: 78%   Direction: NA
Pressure: 30.46"   Gusts: NA
Location:  45.61°N, 98.31°W
Report Text: KABR 271253Z AUTO 00000KT 10SM CLR M25/M28 A3046 RMK AO2 SLP357 T12501278 $
Loading
Personal Weather Stations






























Interactive Weather Map New forecast layout! Learn more

10-Day Weather Forecast

Advertisements
Track Severe Weather on mobile